sensor_id;sensor_type;location;lat;lon;timestamp;P1;durP1;ratioP1;P2;durP2;ratioP2
9860;SDS011;4969;52.304;4.968;2022-10-16T00:00:24;21.13;;;17.40;;
9860;SDS011;4969;52.304;4.968;2022-10-16T00:02:50;27.27;;;24.25;;
9860;SDS011;4969;52.304;4.968;2022-10-16T00:05:17;35.70;;;31.10;;
9860;SDS011;4969;52.304;4.968;2022-10-16T00:07:43;11.75;;;7.95;;
9860;SDS011;4969;52.304;4.968;2022-10-16T00:10:11;31.15;;;25.20;;
9860;SDS011;4969;52.304;4.968;2022-10-16T00:12:38;31.33;;;26.60;;
9860;SDS011;4969;52.304;4.968;2022-10-16T00:15:05;37.50;;;28.50;;
9860;SDS011;4969;52.304;4.968;2022-10-16T00:17:32;33.90;;;28.27;;
9860;SDS011;4969;52.304;4.968;2022-10-16T00:19:59;34.38;;;29.48;;
9860;SDS011;4969;52.304;4.968;2022-10-16T00:22:25;29.00;;;24.48;;
9860;SDS011;4969;52.304;4.968;2022-10-16T00:24:52;40.25;;;32.92;;
9860;SDS011;4969;52.304;4.968;2022-10-16T00:27:20;41.95;;;34.72;;
9860;SDS011;4969;52.304;4.968;2022-10-16T00:29:49;16.42;;;13.38;;
9860;SDS011;4969;52.304;4.968;2022-10-16T00:32:16;45.08;;;35.63;;
9860;SDS011;4969;52.304;4.968;2022-10-16T00:34:42;34.53;;;28.75;;
9860;SDS011;4969;52.304;4.968;2022-10-16T00:37:09;20.23;;;17.85;;
9860;SDS011;4969;52.304;4.968;2022-10-16T00:39:36;11.88;;;9.52;;
9860;SDS011;4969;52.304;4.968;2022-10-16T00:42:02;26.20;;;20.83;;
9860;SDS011;4969;52.304;4.968;2022-10-16T00:44:44;39.75;;;34.22;;
9860;SDS011;4969;52.304;4.968;2022-10-16T00:47:15;36.75;;;31.90;;
9860;SDS011;4969;52.304;4.968;2022-10-16T00:49:45;46.50;;;40.05;;
9860;SDS011;4969;52.304;4.968;2022-10-16T00:52:13;32.25;;;27.63;;
9860;SDS011;4969;52.304;4.968;2022-10-16T00:54:40;11.93;;;6.30;;
9860;SDS011;4969;52.304;4.968;2022-10-16T00:57:07;39.63;;;34.05;;
9860;SDS011;4969;52.304;4.968;2022-10-16T00:59:35;36.55;;;31.38;;
9860;SDS011;4969;52.304;4.968;2022-10-16T01:02:05;45.75;;;38.63;;
9860;SDS011;4969;52.304;4.968;2022-10-16T01:04:35;30.05;;;22.95;;
9860;SDS011;4969;52.304;4.968;2022-10-16T01:07:05;44.15;;;38.60;;
9860;SDS011;4969;52.304;4.968;2022-10-16T01:09:40;50.97;;;41.25;;
9860;SDS011;4969;52.304;4.968;2022-10-16T01:12:18;25.00;;;21.75;;
9860;SDS011;4969;52.304;4.968;2022-10-16T01:14:53;16.27;;;14.18;;
9860;SDS011;4969;52.304;4.968;2022-10-16T01:17:25;39.22;;;34.75;;
9860;SDS011;4969;52.304;4.968;2022-10-16T01:20:09;18.33;;;15.60;;
9860;SDS011;4969;52.304;4.968;2022-10-16T01:22:43;35.10;;;29.00;;
9860;SDS011;4969;52.304;4.968;2022-10-16T01:25:23;17.30;;;14.13;;
9860;SDS011;4969;52.304;4.968;2022-10-16T01:27:58;30.58;;;25.33;;
9860;SDS011;4969;52.304;4.968;2022-10-16T01:30:27;27.70;;;23.85;;
9860;SDS011;4969;52.304;4.968;2022-10-16T01:32:57;35.92;;;31.70;;
9860;SDS011;4969;52.304;4.968;2022-10-16T01:35:27;21.00;;;18.05;;
9860;SDS011;4969;52.304;4.968;2022-10-16T01:37:59;31.05;;;26.77;;
9860;SDS011;4969;52.304;4.968;2022-10-16T01:40:29;18.02;;;15.48;;
9860;SDS011;4969;52.304;4.968;2022-10-16T01:43:00;7.95;;;6.90;;
9860;SDS011;4969;52.304;4.968;2022-10-16T01:45:31;42.00;;;37.42;;
9860;SDS011;4969;52.304;4.968;2022-10-16T01:48:00;27.67;;;23.73;;
9860;SDS011;4969;52.304;4.968;2022-10-16T01:50:29;21.42;;;17.60;;
9860;SDS011;4969;52.304;4.968;2022-10-16T01:52:58;14.98;;;12.48;;
9860;SDS011;4969;52.304;4.968;2022-10-16T01:55:28;32.58;;;29.15;;
9860;SDS011;4969;52.304;4.968;2022-10-16T01:57:59;10.07;;;7.60;;
9860;SDS011;4969;52.304;4.968;2022-10-16T02:00:28;36.45;;;32.17;;
9860;SDS011;4969;52.304;4.968;2022-10-16T02:02:56;27.70;;;24.75;;
9860;SDS011;4969;52.304;4.968;2022-10-16T02:05:28;29.38;;;24.50;;
9860;SDS011;4969;52.304;4.968;2022-10-16T02:07:58;23.02;;;19.67;;
9860;SDS011;4969;52.304;4.968;2022-10-16T02:10:25;34.63;;;30.17;;
9860;SDS011;4969;52.304;4.968;2022-10-16T02:12:56;19.50;;;17.35;;
9860;SDS011;4969;52.304;4.968;2022-10-16T02:15:26;19.48;;;17.55;;
9860;SDS011;4969;52.304;4.968;2022-10-16T02:17:53;24.20;;;21.60;;
9860;SDS011;4969;52.304;4.968;2022-10-16T02:20:20;19.23;;;17.23;;
9860;SDS011;4969;52.304;4.968;2022-10-16T02:22:51;17.80;;;15.90;;
9860;SDS011;4969;52.304;4.968;2022-10-16T02:25:24;12.13;;;9.45;;
9860;SDS011;4969;52.304;4.968;2022-10-16T02:27:57;34.67;;;29.85;;
9860;SDS011;4969;52.304;4.968;2022-10-16T02:30:32;19.70;;;17.23;;
9860;SDS011;4969;52.304;4.968;2022-10-16T02:33:03;14.20;;;11.80;;
9860;SDS011;4969;52.304;4.968;2022-10-16T02:35:33;19.85;;;17.83;;
9860;SDS011;4969;52.304;4.968;2022-10-16T02:38:00;38.00;;;34.03;;
9860;SDS011;4969;52.304;4.968;2022-10-16T02:40:27;27.77;;;23.73;;
9860;SDS011;4969;52.304;4.968;2022-10-16T02:42:54;29.25;;;25.88;;
9860;SDS011;4969;52.304;4.968;2022-10-16T02:45:21;31.38;;;27.95;;
9860;SDS011;4969;52.304;4.968;2022-10-16T02:47:50;7.00;;;5.85;;
9860;SDS011;4969;52.304;4.968;2022-10-16T02:50:17;20.45;;;18.20;;
9860;SDS011;4969;52.304;4.968;2022-10-16T02:52:43;14.15;;;12.05;;
9860;SDS011;4969;52.304;4.968;2022-10-16T02:55:10;11.85;;;10.68;;
9860;SDS011;4969;52.304;4.968;2022-10-16T02:57:37;31.45;;;25.70;;
9860;SDS011;4969;52.304;4.968;2022-10-16T03:00:05;24.30;;;21.70;;
9860;SDS011;4969;52.304;4.968;2022-10-16T03:02:33;27.52;;;24.63;;
9860;SDS011;4969;52.304;4.968;2022-10-16T03:05:00;7.75;;;6.95;;
9860;SDS011;4969;52.304;4.968;2022-10-16T03:07:27;16.40;;;14.45;;
9860;SDS011;4969;52.304;4.968;2022-10-16T03:09:54;20.02;;;17.95;;
9860;SDS011;4969;52.304;4.968;2022-10-16T03:12:20;35.05;;;26.75;;
9860;SDS011;4969;52.304;4.968;2022-10-16T03:14:47;28.20;;;25.15;;
9860;SDS011;4969;52.304;4.968;2022-10-16T03:17:13;18.65;;;16.45;;
9860;SDS011;4969;52.304;4.968;2022-10-16T03:19:41;11.57;;;10.27;;
9860;SDS011;4969;52.304;4.968;2022-10-16T03:22:09;21.42;;;19.27;;
9860;SDS011;4969;52.304;4.968;2022-10-16T03:24:36;17.95;;;15.65;;
9860;SDS011;4969;52.304;4.968;2022-10-16T03:27:02;16.30;;;14.57;;
9860;SDS011;4969;52.304;4.968;2022-10-16T03:29:29;5.95;;;5.35;;
9860;SDS011;4969;52.304;4.968;2022-10-16T03:31:57;25.45;;;22.63;;
9860;SDS011;4969;52.304;4.968;2022-10-16T03:34:23;21.92;;;19.63;;
9860;SDS011;4969;52.304;4.968;2022-10-16T03:36:50;15.90;;;14.05;;
9860;SDS011;4969;52.304;4.968;2022-10-16T03:39:18;22.83;;;19.52;;
9860;SDS011;4969;52.304;4.968;2022-10-16T03:41:45;15.90;;;14.38;;
9860;SDS011;4969;52.304;4.968;2022-10-16T03:44:12;6.22;;;5.65;;
9860;SDS011;4969;52.304;4.968;2022-10-16T03:46:38;11.90;;;6.90;;
9860;SDS011;4969;52.304;4.968;2022-10-16T03:49:05;20.08;;;17.15;;
9860;SDS011;4969;52.304;4.968;2022-10-16T03:51:32;24.15;;;21.65;;
9860;SDS011;4969;52.304;4.968;2022-10-16T03:53:59;17.88;;;15.98;;
9860;SDS011;4969;52.304;4.968;2022-10-16T03:56:27;9.38;;;8.48;;
9860;SDS011;4969;52.304;4.968;2022-10-16T03:58:53;18.83;;;13.88;;
9860;SDS011;4969;52.304;4.968;2022-10-16T04:01:20;10.07;;;8.80;;
9860;SDS011;4969;52.304;4.968;2022-10-16T04:03:46;16.63;;;14.88;;
9860;SDS011;4969;52.304;4.968;2022-10-16T04:06:13;12.85;;;10.80;;
9860;SDS011;4969;52.304;4.968;2022-10-16T04:08:41;7.22;;;6.57;;
9860;SDS011;4969;52.304;4.968;2022-10-16T04:11:08;19.80;;;17.70;;
9860;SDS011;4969;52.304;4.968;2022-10-16T04:13:36;9.80;;;8.80;;
9860;SDS011;4969;52.304;4.968;2022-10-16T04:16:03;6.68;;;5.78;;
9860;SDS011;4969;52.304;4.968;2022-10-16T04:18:30;14.88;;;13.30;;
9860;SDS011;4969;52.304;4.968;2022-10-16T04:20:56;15.68;;;14.07;;
9860;SDS011;4969;52.304;4.968;2022-10-16T04:23:27;9.45;;;8.23;;
9860;SDS011;4969;52.304;4.968;2022-10-16T04:25:54;16.02;;;14.43;;
9860;SDS011;4969;52.304;4.968;2022-10-16T04:28:20;16.23;;;14.45;;
9860;SDS011;4969;52.304;4.968;2022-10-16T04:30:48;16.23;;;12.57;;
9860;SDS011;4969;52.304;4.968;2022-10-16T04:33:15;14.40;;;13.07;;
9860;SDS011;4969;52.304;4.968;2022-10-16T04:35:41;16.38;;;14.68;;
9860;SDS011;4969;52.304;4.968;2022-10-16T04:38:08;12.70;;;11.35;;
9860;SDS011;4969;52.304;4.968;2022-10-16T04:40:34;10.18;;;9.15;;
9860;SDS011;4969;52.304;4.968;2022-10-16T04:43:01;7.18;;;4.72;;
9860;SDS011;4969;52.304;4.968;2022-10-16T04:45:28;6.85;;;6.15;;
9860;SDS011;4969;52.304;4.968;2022-10-16T04:47:57;3.78;;;3.35;;
9860;SDS011;4969;52.304;4.968;2022-10-16T04:50:24;6.07;;;5.43;;
9860;SDS011;4969;52.304;4.968;2022-10-16T04:52:51;3.85;;;3.55;;
9860;SDS011;4969;52.304;4.968;2022-10-16T04:55:17;7.80;;;6.30;;
9860;SDS011;4969;52.304;4.968;2022-10-16T04:57:44;4.82;;;4.28;;
9860;SDS011;4969;52.304;4.968;2022-10-16T05:00:11;5.15;;;4.65;;
9860;SDS011;4969;52.304;4.968;2022-10-16T05:02:38;4.60;;;4.13;;
9860;SDS011;4969;52.304;4.968;2022-10-16T05:05:06;6.35;;;4.05;;
9860;SDS011;4969;52.304;4.968;2022-10-16T05:07:33;4.47;;;3.13;;
9860;SDS011;4969;52.304;4.968;2022-10-16T05:09:59;5.13;;;3.55;;
9860;SDS011;4969;52.304;4.968;2022-10-16T05:12:26;4.47;;;3.42;;
9860;SDS011;4969;52.304;4.968;2022-10-16T05:14:53;2.13;;;1.98;;
9860;SDS011;4969;52.304;4.968;2022-10-16T05:17:23;4.28;;;3.88;;
9860;SDS011;4969;52.304;4.968;2022-10-16T05:19:50;7.50;;;6.40;;
9860;SDS011;4969;52.304;4.968;2022-10-16T05:22:18;2.17;;;1.98;;
9860;SDS011;4969;52.304;4.968;2022-10-16T05:24:44;5.35;;;2.78;;
9860;SDS011;4969;52.304;4.968;2022-10-16T05:27:11;5.50;;;5.00;;
9860;SDS011;4969;52.304;4.968;2022-10-16T05:29:43;3.30;;;2.00;;
9860;SDS011;4969;52.304;4.968;2022-10-16T05:32:10;5.15;;;3.05;;
9860;SDS011;4969;52.304;4.968;2022-10-16T05:34:37;2.70;;;2.40;;
9860;SDS011;4969;52.304;4.968;2022-10-16T05:37:04;3.58;;;3.28;;
9860;SDS011;4969;52.304;4.968;2022-10-16T05:39:32;7.25;;;4.13;;
9860;SDS011;4969;52.304;4.968;2022-10-16T05:41:59;2.30;;;1.83;;
9860;SDS011;4969;52.304;4.968;2022-10-16T05:44:25;3.33;;;2.30;;
9860;SDS011;4969;52.304;4.968;2022-10-16T05:46:52;2.85;;;1.85;;
9860;SDS011;4969;52.304;4.968;2022-10-16T05:49:18;4.43;;;4.03;;
9860;SDS011;4969;52.304;4.968;2022-10-16T05:51:45;4.70;;;2.67;;
9860;SDS011;4969;52.304;4.968;2022-10-16T05:54:12;3.67;;;2.72;;
9860;SDS011;4969;52.304;4.968;2022-10-16T05:56:40;2.85;;;2.53;;
9860;SDS011;4969;52.304;4.968;2022-10-16T05:59:06;2.80;;;2.50;;
9860;SDS011;4969;52.304;4.968;2022-10-16T06:01:33;4.50;;;2.47;;
9860;SDS011;4969;52.304;4.968;2022-10-16T06:04:00;3.67;;;2.97;;
9860;SDS011;4969;52.304;4.968;2022-10-16T06:06:27;4.07;;;3.22;;
9860;SDS011;4969;52.304;4.968;2022-10-16T06:08:55;4.07;;;3.35;;
9860;SDS011;4969;52.304;4.968;2022-10-16T06:11:23;4.38;;;3.65;;
9860;SDS011;4969;52.304;4.968;2022-10-16T06:13:53;2.92;;;1.95;;
9860;SDS011;4969;52.304;4.968;2022-10-16T06:16:21;4.88;;;3.33;;
9860;SDS011;4969;52.304;4.968;2022-10-16T06:18:50;5.25;;;1.92;;
9860;SDS011;4969;52.304;4.968;2022-10-16T06:21:18;5.20;;;2.90;;
9860;SDS011;4969;52.304;4.968;2022-10-16T06:23:45;5.72;;;2.97;;
9860;SDS011;4969;52.304;4.968;2022-10-16T06:26:13;3.03;;;2.22;;
9860;SDS011;4969;52.304;4.968;2022-10-16T06:28:42;5.28;;;3.40;;
9860;SDS011;4969;52.304;4.968;2022-10-16T06:31:11;2.67;;;2.47;;
9860;SDS011;4969;52.304;4.968;2022-10-16T06:33:38;4.07;;;2.30;;
9860;SDS011;4969;52.304;4.968;2022-10-16T06:36:07;2.92;;;2.00;;
9860;SDS011;4969;52.304;4.968;2022-10-16T06:38:35;5.18;;;4.07;;
9860;SDS011;4969;52.304;4.968;2022-10-16T06:41:02;3.13;;;2.83;;
9860;SDS011;4969;52.304;4.968;2022-10-16T06:43:30;5.38;;;3.95;;
9860;SDS011;4969;52.304;4.968;2022-10-16T06:45:57;3.50;;;2.80;;
9860;SDS011;4969;52.304;4.968;2022-10-16T06:48:26;3.60;;;3.33;;
9860;SDS011;4969;52.304;4.968;2022-10-16T06:50:58;4.63;;;3.35;;
9860;SDS011;4969;52.304;4.968;2022-10-16T06:53:26;3.05;;;2.20;;
9860;SDS011;4969;52.304;4.968;2022-10-16T06:55:53;3.00;;;2.65;;
9860;SDS011;4969;52.304;4.968;2022-10-16T06:58:20;3.50;;;2.55;;
9860;SDS011;4969;52.304;4.968;2022-10-16T07:00:47;5.03;;;1.95;;
9860;SDS011;4969;52.304;4.968;2022-10-16T07:03:14;2.88;;;2.22;;
9860;SDS011;4969;52.304;4.968;2022-10-16T07:05:42;3.95;;;3.05;;
9860;SDS011;4969;52.304;4.968;2022-10-16T07:08:09;3.50;;;2.28;;
9860;SDS011;4969;52.304;4.968;2022-10-16T07:10:35;4.07;;;2.13;;
9860;SDS011;4969;52.304;4.968;2022-10-16T07:13:02;3.10;;;2.25;;
9860;SDS011;4969;52.304;4.968;2022-10-16T07:15:29;1.88;;;1.60;;
9860;SDS011;4969;52.304;4.968;2022-10-16T07:17:56;3.33;;;2.50;;
9860;SDS011;4969;52.304;4.968;2022-10-16T07:20:22;4.22;;;1.85;;
9860;SDS011;4969;52.304;4.968;2022-10-16T07:22:50;4.03;;;2.88;;
9860;SDS011;4969;52.304;4.968;2022-10-16T07:25:17;4.85;;;3.00;;
9860;SDS011;4969;52.304;4.968;2022-10-16T07:27:44;5.53;;;2.00;;
9860;SDS011;4969;52.304;4.968;2022-10-16T07:30:10;5.47;;;2.55;;
9860;SDS011;4969;52.304;4.968;2022-10-16T07:32:37;3.67;;;1.77;;
9860;SDS011;4969;52.304;4.968;2022-10-16T07:35:04;4.35;;;2.63;;
9860;SDS011;4969;52.304;4.968;2022-10-16T07:37:31;6.32;;;2.85;;
9860;SDS011;4969;52.304;4.968;2022-10-16T07:39:59;1.80;;;1.58;;
9860;SDS011;4969;52.304;4.968;2022-10-16T07:42:26;3.00;;;1.48;;
9860;SDS011;4969;52.304;4.968;2022-10-16T07:44:53;2.60;;;1.85;;
9860;SDS011;4969;52.304;4.968;2022-10-16T07:47:20;2.40;;;1.85;;
9860;SDS011;4969;52.304;4.968;2022-10-16T07:49:46;2.65;;;1.95;;
9860;SDS011;4969;52.304;4.968;2022-10-16T07:52:13;3.95;;;2.22;;
9860;SDS011;4969;52.304;4.968;2022-10-16T07:54:40;5.78;;;2.67;;
9860;SDS011;4969;52.304;4.968;2022-10-16T07:57:08;3.38;;;2.00;;
9860;SDS011;4969;52.304;4.968;2022-10-16T07:59:34;5.70;;;2.42;;
9860;SDS011;4969;52.304;4.968;2022-10-16T08:02:01;7.07;;;2.30;;
9860;SDS011;4969;52.304;4.968;2022-10-16T08:04:27;3.88;;;1.75;;
9860;SDS011;4969;52.304;4.968;2022-10-16T08:06:54;3.72;;;1.70;;
9860;SDS011;4969;52.304;4.968;2022-10-16T08:09:21;2.47;;;1.77;;
9860;SDS011;4969;52.304;4.968;2022-10-16T08:11:47;3.85;;;1.77;;
9860;SDS011;4969;52.304;4.968;2022-10-16T08:14:15;3.03;;;2.00;;
9860;SDS011;4969;52.304;4.968;2022-10-16T08:16:42;8.38;;;3.22;;
9860;SDS011;4969;52.304;4.968;2022-10-16T08:19:08;6.60;;;2.47;;
9860;SDS011;4969;52.304;4.968;2022-10-16T08:21:35;5.82;;;2.65;;
9860;SDS011;4969;52.304;4.968;2022-10-16T08:24:01;5.72;;;2.25;;
9860;SDS011;4969;52.304;4.968;2022-10-16T08:26:28;6.38;;;2.80;;
9860;SDS011;4969;52.304;4.968;2022-10-16T08:28:55;5.72;;;3.15;;
9860;SDS011;4969;52.304;4.968;2022-10-16T08:31:23;6.20;;;3.92;;
9860;SDS011;4969;52.304;4.968;2022-10-16T08:33:51;4.32;;;2.80;;
9860;SDS011;4969;52.304;4.968;2022-10-16T08:36:17;7.50;;;4.85;;
9860;SDS011;4969;52.304;4.968;2022-10-16T08:38:46;9.02;;;4.40;;
9860;SDS011;4969;52.304;4.968;2022-10-16T08:41:18;9.70;;;6.72;;
9860;SDS011;4969;52.304;4.968;2022-10-16T08:43:55;7.32;;;4.00;;
9860;SDS011;4969;52.304;4.968;2022-10-16T08:46:36;12.00;;;6.78;;
9860;SDS011;4969;52.304;4.968;2022-10-16T08:49:10;14.07;;;9.68;;
9860;SDS011;4969;52.304;4.968;2022-10-16T08:51:38;5.03;;;1.98;;
9860;SDS011;4969;52.304;4.968;2022-10-16T08:54:06;13.38;;;8.80;;
9860;SDS011;4969;52.304;4.968;2022-10-16T08:56:41;8.48;;;2.80;;
9860;SDS011;4969;52.304;4.968;2022-10-16T08:59:09;9.45;;;5.15;;
9860;SDS011;4969;52.304;4.968;2022-10-16T09:01:40;15.43;;;10.27;;
9860;SDS011;4969;52.304;4.968;2022-10-16T09:04:18;11.25;;;6.60;;
9860;SDS011;4969;52.304;4.968;2022-10-16T09:07:09;12.20;;;6.28;;
9860;SDS011;4969;52.304;4.968;2022-10-16T09:09:46;17.85;;;9.70;;
9860;SDS011;4969;52.304;4.968;2022-10-16T09:12:23;13.40;;;7.72;;
9860;SDS011;4969;52.304;4.968;2022-10-16T09:14:57;11.82;;;4.93;;
9860;SDS011;4969;52.304;4.968;2022-10-16T09:17:32;9.88;;;4.18;;
9860;SDS011;4969;52.304;4.968;2022-10-16T09:20:12;12.15;;;4.25;;
9860;SDS011;4969;52.304;4.968;2022-10-16T09:22:44;8.68;;;3.15;;
9860;SDS011;4969;52.304;4.968;2022-10-16T09:25:12;9.48;;;3.95;;
9860;SDS011;4969;52.304;4.968;2022-10-16T09:27:39;13.38;;;6.20;;
9860;SDS011;4969;52.304;4.968;2022-10-16T09:30:10;9.07;;;3.97;;
9860;SDS011;4969;52.304;4.968;2022-10-16T09:32:40;10.05;;;2.83;;
9860;SDS011;4969;52.304;4.968;2022-10-16T09:35:11;8.68;;;3.75;;
9860;SDS011;4969;52.304;4.968;2022-10-16T09:37:40;12.65;;;6.18;;
9860;SDS011;4969;52.304;4.968;2022-10-16T09:40:12;15.77;;;3.13;;
9860;SDS011;4969;52.304;4.968;2022-10-16T09:42:39;11.30;;;4.55;;
9860;SDS011;4969;52.304;4.968;2022-10-16T09:45:19;7.95;;;2.50;;
9860;SDS011;4969;52.304;4.968;2022-10-16T09:47:49;10.18;;;3.33;;
9860;SDS011;4969;52.304;4.968;2022-10-16T09:50:20;16.65;;;5.03;;
9860;SDS011;4969;52.304;4.968;2022-10-16T09:52:50;11.30;;;2.58;;
9860;SDS011;4969;52.304;4.968;2022-10-16T09:55:17;9.05;;;2.50;;
9860;SDS011;4969;52.304;4.968;2022-10-16T09:57:50;12.00;;;3.15;;
9860;SDS011;4969;52.304;4.968;2022-10-16T10:00:17;14.05;;;6.30;;
9860;SDS011;4969;52.304;4.968;2022-10-16T10:02:44;11.57;;;4.55;;
9860;SDS011;4969;52.304;4.968;2022-10-16T10:05:20;16.38;;;6.97;;
9860;SDS011;4969;52.304;4.968;2022-10-16T10:07:53;12.88;;;5.63;;
9860;SDS011;4969;52.304;4.968;2022-10-16T10:10:23;10.43;;;4.13;;
9860;SDS011;4969;52.304;4.968;2022-10-16T10:12:51;10.40;;;5.18;;
9860;SDS011;4969;52.304;4.968;2022-10-16T10:15:19;11.02;;;3.05;;
9860;SDS011;4969;52.304;4.968;2022-10-16T10:17:47;10.07;;;2.42;;
9860;SDS011;4969;52.304;4.968;2022-10-16T10:20:23;9.63;;;3.85;;
9860;SDS011;4969;52.304;4.968;2022-10-16T10:22:52;13.27;;;5.95;;
9860;SDS011;4969;52.304;4.968;2022-10-16T10:25:35;9.90;;;3.15;;
9860;SDS011;4969;52.304;4.968;2022-10-16T10:28:17;9.98;;;3.42;;
9860;SDS011;4969;52.304;4.968;2022-10-16T10:30:54;13.95;;;4.90;;
9860;SDS011;4969;52.304;4.968;2022-10-16T10:33:28;13.65;;;3.88;;
9860;SDS011;4969;52.304;4.968;2022-10-16T10:36:07;10.13;;;3.70;;
9860;SDS011;4969;52.304;4.968;2022-10-16T10:38:45;10.98;;;3.33;;
9860;SDS011;4969;52.304;4.968;2022-10-16T10:41:24;8.90;;;2.50;;
9860;SDS011;4969;52.304;4.968;2022-10-16T10:44:01;9.80;;;2.60;;
9860;SDS011;4969;52.304;4.968;2022-10-16T10:46:34;11.55;;;3.00;;
9860;SDS011;4969;52.304;4.968;2022-10-16T10:51:58;11.02;;;3.40;;
9860;SDS011;4969;52.304;4.968;2022-10-16T10:54:35;11.50;;;3.55;;
9860;SDS011;4969;52.304;4.968;2022-10-16T10:57:09;10.65;;;2.95;;
9860;SDS011;4969;52.304;4.968;2022-10-16T10:59:43;7.22;;;3.15;;
9860;SDS011;4969;52.304;4.968;2022-10-16T11:02:22;9.20;;;3.45;;
9860;SDS011;4969;52.304;4.968;2022-10-16T11:07:52;9.80;;;3.08;;
9860;SDS011;4969;52.304;4.968;2022-10-16T11:10:24;6.47;;;2.22;;
9860;SDS011;4969;52.304;4.968;2022-10-16T11:12:55;7.20;;;2.67;;
9860;SDS011;4969;52.304;4.968;2022-10-16T11:15:28;16.48;;;5.38;;
9860;SDS011;4969;52.304;4.968;2022-10-16T11:17:59;12.63;;;4.88;;
9860;SDS011;4969;52.304;4.968;2022-10-16T11:20:32;10.95;;;4.22;;
9860;SDS011;4969;52.304;4.968;2022-10-16T11:23:07;10.75;;;3.08;;
9860;SDS011;4969;52.304;4.968;2022-10-16T11:25:40;9.52;;;3.70;;
9860;SDS011;4969;52.304;4.968;2022-10-16T11:28:10;8.32;;;2.30;;
9860;SDS011;4969;52.304;4.968;2022-10-16T11:30:40;9.68;;;3.22;;
9860;SDS011;4969;52.304;4.968;2022-10-16T11:33:28;10.35;;;2.30;;
9860;SDS011;4969;52.304;4.968;2022-10-16T11:36:00;9.57;;;4.35;;
9860;SDS011;4969;52.304;4.968;2022-10-16T11:38:37;9.23;;;2.53;;
9860;SDS011;4969;52.304;4.968;2022-10-16T11:41:10;6.93;;;2.88;;
9860;SDS011;4969;52.304;4.968;2022-10-16T11:43:46;5.22;;;2.17;;
9860;SDS011;4969;52.304;4.968;2022-10-16T11:46:19;10.02;;;4.07;;
9860;SDS011;4969;52.304;4.968;2022-10-16T11:48:49;7.50;;;2.40;;
9860;SDS011;4969;52.304;4.968;2022-10-16T11:51:21;8.95;;;3.20;;
9860;SDS011;4969;52.304;4.968;2022-10-16T11:54:00;17.40;;;10.55;;
9860;SDS011;4969;52.304;4.968;2022-10-16T11:56:32;9.52;;;2.75;;
9860;SDS011;4969;52.304;4.968;2022-10-16T11:59:05;22.48;;;14.98;;
9860;SDS011;4969;52.304;4.968;2022-10-16T12:01:42;21.60;;;11.95;;
9860;SDS011;4969;52.304;4.968;2022-10-16T12:04:14;23.30;;;17.13;;
9860;SDS011;4969;52.304;4.968;2022-10-16T12:06:48;15.55;;;10.07;;
9860;SDS011;4969;52.304;4.968;2022-10-16T12:09:21;38.17;;;30.17;;
9860;SDS011;4969;52.304;4.968;2022-10-16T12:11:51;8.05;;;2.25;;
9860;SDS011;4969;52.304;4.968;2022-10-16T12:14:22;25.95;;;17.63;;
9860;SDS011;4969;52.304;4.968;2022-10-16T12:17:01;34.38;;;23.77;;
9860;SDS011;4969;52.304;4.968;2022-10-16T12:19:31;14.95;;;7.95;;
9860;SDS011;4969;52.304;4.968;2022-10-16T12:21:58;12.13;;;5.68;;
9860;SDS011;4969;52.304;4.968;2022-10-16T12:24:33;16.85;;;8.00;;
9860;SDS011;4969;52.304;4.968;2022-10-16T12:27:02;11.35;;;6.30;;
9860;SDS011;4969;52.304;4.968;2022-10-16T12:29:33;9.50;;;3.15;;
9860;SDS011;4969;52.304;4.968;2022-10-16T12:32:02;14.15;;;9.52;;
9860;SDS011;4969;52.304;4.968;2022-10-16T12:34:37;15.75;;;4.93;;
9860;SDS011;4969;52.304;4.968;2022-10-16T12:37:09;11.05;;;2.78;;
9860;SDS011;4969;52.304;4.968;2022-10-16T12:39:39;17.30;;;9.90;;
9860;SDS011;4969;52.304;4.968;2022-10-16T12:42:19;18.00;;;11.23;;
9860;SDS011;4969;52.304;4.968;2022-10-16T12:44:47;7.38;;;4.03;;
9860;SDS011;4969;52.304;4.968;2022-10-16T12:47:19;6.22;;;2.72;;
9860;SDS011;4969;52.304;4.968;2022-10-16T12:49:48;13.38;;;7.15;;
9860;SDS011;4969;52.304;4.968;2022-10-16T12:52:23;19.52;;;14.13;;
9860;SDS011;4969;52.304;4.968;2022-10-16T12:54:55;26.48;;;19.48;;
9860;SDS011;4969;52.304;4.968;2022-10-16T12:57:28;24.42;;;17.08;;
9860;SDS011;4969;52.304;4.968;2022-10-16T13:00:03;11.15;;;3.80;;
9860;SDS011;4969;52.304;4.968;2022-10-16T13:05:40;32.15;;;23.15;;
9860;SDS011;4969;52.304;4.968;2022-10-16T13:08:21;46.67;;;38.47;;
9860;SDS011;4969;52.304;4.968;2022-10-16T13:11:06;20.02;;;12.57;;
9860;SDS011;4969;52.304;4.968;2022-10-16T13:16:45;8.43;;;2.70;;
9860;SDS011;4969;52.304;4.968;2022-10-16T13:19:21;9.52;;;2.65;;
9860;SDS011;4969;52.304;4.968;2022-10-16T13:21:55;9.55;;;2.90;;
9860;SDS011;4969;52.304;4.968;2022-10-16T13:24:30;12.98;;;5.05;;
9860;SDS011;4969;52.304;4.968;2022-10-16T13:27:10;13.80;;;7.15;;
9860;SDS011;4969;52.304;4.968;2022-10-16T13:29:44;9.18;;;3.50;;
9860;SDS011;4969;52.304;4.968;2022-10-16T13:32:18;16.27;;;10.18;;
9860;SDS011;4969;52.304;4.968;2022-10-16T13:34:47;8.93;;;2.60;;
9860;SDS011;4969;52.304;4.968;2022-10-16T13:37:16;28.23;;;19.67;;
9860;SDS011;4969;52.304;4.968;2022-10-16T13:39:44;8.85;;;5.75;;
9860;SDS011;4969;52.304;4.968;2022-10-16T13:42:14;16.70;;;9.85;;
9860;SDS011;4969;52.304;4.968;2022-10-16T13:44:45;12.85;;;7.82;;
9860;SDS011;4969;52.304;4.968;2022-10-16T13:47:15;27.27;;;20.40;;
9860;SDS011;4969;52.304;4.968;2022-10-16T13:49:43;22.10;;;12.13;;
9860;SDS011;4969;52.304;4.968;2022-10-16T13:52:17;9.32;;;2.83;;
9860;SDS011;4969;52.304;4.968;2022-10-16T13:54:45;11.95;;;5.53;;
9860;SDS011;4969;52.304;4.968;2022-10-16T13:57:14;14.75;;;4.47;;
9860;SDS011;4969;52.304;4.968;2022-10-16T13:59:41;20.17;;;11.90;;
9860;SDS011;4969;52.304;4.968;2022-10-16T14:02:11;17.67;;;9.60;;
9860;SDS011;4969;52.304;4.968;2022-10-16T14:04:46;10.63;;;3.40;;
9860;SDS011;4969;52.304;4.968;2022-10-16T14:07:13;17.02;;;11.40;;
9860;SDS011;4969;52.304;4.968;2022-10-16T14:09:42;12.60;;;5.97;;
9860;SDS011;4969;52.304;4.968;2022-10-16T14:12:17;21.75;;;14.45;;
9860;SDS011;4969;52.304;4.968;2022-10-16T14:14:44;15.05;;;6.38;;
9860;SDS011;4969;52.304;4.968;2022-10-16T14:17:13;12.68;;;3.67;;
9860;SDS011;4969;52.304;4.968;2022-10-16T14:19:40;9.95;;;3.85;;
9860;SDS011;4969;52.304;4.968;2022-10-16T14:22:22;10.77;;;3.42;;
9860;SDS011;4969;52.304;4.968;2022-10-16T14:24:55;9.65;;;3.40;;
9860;SDS011;4969;52.304;4.968;2022-10-16T14:27:28;18.75;;;10.98;;
9860;SDS011;4969;52.304;4.968;2022-10-16T14:30:13;13.30;;;5.88;;
9860;SDS011;4969;52.304;4.968;2022-10-16T14:32:52;13.57;;;4.53;;
9860;SDS011;4969;52.304;4.968;2022-10-16T14:35:25;19.77;;;14.95;;
9860;SDS011;4969;52.304;4.968;2022-10-16T14:37:54;21.83;;;13.85;;
9860;SDS011;4969;52.304;4.968;2022-10-16T14:40:23;18.35;;;15.15;;
9860;SDS011;4969;52.304;4.968;2022-10-16T14:42:52;8.18;;;2.60;;
9860;SDS011;4969;52.304;4.968;2022-10-16T14:45:20;11.93;;;4.97;;
9860;SDS011;4969;52.304;4.968;2022-10-16T14:47:49;8.32;;;3.50;;
9860;SDS011;4969;52.304;4.968;2022-10-16T14:50:18;7.00;;;3.25;;
9860;SDS011;4969;52.304;4.968;2022-10-16T14:52:44;7.57;;;3.45;;
9860;SDS011;4969;52.304;4.968;2022-10-16T14:55:11;16.38;;;10.45;;
9860;SDS011;4969;52.304;4.968;2022-10-16T14:57:38;20.63;;;10.70;;
9860;SDS011;4969;52.304;4.968;2022-10-16T15:00:10;9.52;;;3.17;;
9860;SDS011;4969;52.304;4.968;2022-10-16T15:02:42;14.20;;;8.65;;
9860;SDS011;4969;52.304;4.968;2022-10-16T15:05:12;12.27;;;4.00;;
9860;SDS011;4969;52.304;4.968;2022-10-16T15:07:41;14.85;;;8.93;;
9860;SDS011;4969;52.304;4.968;2022-10-16T15:10:08;8.10;;;3.60;;
9860;SDS011;4969;52.304;4.968;2022-10-16T15:12:34;17.08;;;9.40;;
9860;SDS011;4969;52.304;4.968;2022-10-16T15:15:01;21.13;;;13.38;;
9860;SDS011;4969;52.304;4.968;2022-10-16T15:17:29;19.73;;;13.48;;
9860;SDS011;4969;52.304;4.968;2022-10-16T15:19:56;18.15;;;12.50;;
9860;SDS011;4969;52.304;4.968;2022-10-16T15:22:24;14.38;;;8.60;;
9860;SDS011;4969;52.304;4.968;2022-10-16T15:24:50;16.17;;;9.20;;
9860;SDS011;4969;52.304;4.968;2022-10-16T15:27:17;14.02;;;8.15;;
9860;SDS011;4969;52.304;4.968;2022-10-16T15:29:43;9.77;;;2.40;;